Time;durP1;ratioP1;P1;durP2;ratioP2;P2;SDS_P1;SDS_P2;PMS_P1;PMS_P2;Temp;Humidity;BMP_temperature;BMP_pressure;BME280_temperature;BME280_humidity;BME280_pressure;Samples;Min_cycle;Max_cycle;Signal;HPM_P1;HPM_P2
2023/07/22 00:01:13;;;;;;;13.77;10.47;;;11.80;99.90;;;;;;5039720;28;20452;-62
2023/07/22 00:03:40;;;;;;;13.27;10.30;;;11.70;1.00;;;;;;5038969;28;20915;-62
2023/07/22 00:06:08;;;;;;;13.20;10.07;;;11.80;1.00;;;;;;5038569;28;20495;-62
2023/07/22 00:08:38;;;;;;;14.20;10.70;;;11.80;99.90;;;;;;5039555;28;20538;-62
2023/07/22 00:11:06;;;;;;;12.60;10.73;;;11.70;1.00;;;;;;5039181;28;20965;-62
2023/07/22 00:13:34;;;;;;;12.60;10.63;;;11.70;1.00;;;;;;5038674;28;20760;-61
2023/07/22 00:16:03;;;;;;;11.87;10.50;;;11.70;98.10;;;;;;5039145;28;20806;-61
2023/07/22 00:18:32;;;;;;;12.07;10.80;;;11.70;99.90;;;;;;5038998;28;20464;-62
2023/07/22 00:20:59;;;;;;;13.60;11.50;;;11.70;99.90;;;;;;5038956;28;20743;-62
2023/07/22 00:23:26;;;;;;;13.57;11.60;;;11.70;99.90;;;;;;5038483;28;20518;-62
2023/07/22 00:25:55;;;;;;;16.90;10.43;;;11.60;31.40;;;;;;5038472;28;20470;-61
2023/07/22 00:28:22;;;;;;;12.90;10.97;;;11.60;99.90;;;;;;5038626;28;20570;-62
2023/07/22 00:30:50;;;;;;;15.33;10.87;;;11.60;99.90;;;;;;5038489;28;20487;-62
2023/07/22 00:33:17;;;;;;;13.27;10.87;;;11.70;99.90;;;;;;5039111;28;20470;-61
2023/07/22 00:35:48;;;;;;;11.93;10.63;;;11.70;1.00;;;;;;5038751;28;20466;-62
2023/07/22 00:38:15;;;;;;;12.60;10.20;;;11.70;99.90;;;;;;5038652;28;20762;-62
2023/07/22 00:40:43;;;;;;;13.47;11.47;;;11.70;99.90;;;;;;5038384;28;20468;-61
2023/07/22 00:43:12;;;;;;;10.90;9.73;;;11.70;1.00;;;;;;5038435;28;20491;-61
2023/07/22 00:45:39;;;;;;;11.10;9.90;;;11.70;1.00;;;;;;5038227;28;20459;-61
2023/07/22 00:50:42;;;;;;;11.67;9.67;;;11.60;1.00;;;;;;5184058;22;20570;-61
2023/07/22 00:53:09;;;;;;;10.73;9.63;;;11.60;1.00;;;;;;5058671;28;20465;-61
2023/07/22 00:55:38;;;;;;;12.00;10.40;;;11.60;99.90;;;;;;5057850;28;20466;-61
2023/07/22 00:58:05;;;;;;;11.40;10.20;;;11.70;99.90;;;;;;5057986;28;20501;-61
2023/07/22 01:00:34;;;;;;;10.80;9.70;;;11.70;99.90;;;;;;5057880;28;20496;-61
2023/07/22 01:03:02;;;;;;;12.00;10.80;;;11.80;99.90;;;;;;5057443;28;20467;-60
2023/07/22 01:05:29;;;;;;;13.00;11.70;;;11.90;1.00;;;;;;5057671;28;20805;-61
2023/07/22 01:07:57;;;;;;;11.97;10.60;;;11.90;99.90;;;;;;5057317;28;20914;-61
2023/07/22 01:10:24;;;;;;;10.30;9.27;;;11.90;99.90;;;;;;5058073;28;20569;-61
2023/07/22 01:12:52;;;;;;;16.23;11.27;;;11.70;99.90;;;;;;5057754;28;20544;-60
2023/07/22 01:15:19;;;;;;;12.60;11.30;;;11.70;1.00;;;;;;5057753;28;20527;-60
2023/07/22 01:17:48;;;;;;;11.83;10.30;;;11.70;99.90;;;;;;5058031;28;20719;-60
2023/07/22 01:20:18;;;;;;;11.77;10.20;;;11.80;99.90;;;;;;5057695;28;20550;-61
2023/07/22 01:22:52;;;;;;;12.10;10.20;;;11.90;99.90;;;;;;5057678;28;20461;-61
2023/07/22 01:25:21;;;;;;;11.17;10.03;;;11.90;1.00;;;;;;5057312;28;20473;-61
2023/07/22 01:27:49;;;;;;;11.07;9.20;;;11.90;1.00;;;;;;5057432;28;20466;-61
2023/07/22 01:30:16;;;;;;;9.97;8.87;;;11.90;99.90;;;;;;5057386;28;20760;-61
2023/07/22 01:32:44;;;;;;;12.10;10.50;;;11.90;99.90;;;;;;5057665;28;20536;-61
2023/07/22 01:35:11;;;;;;;12.17;10.90;;;11.90;99.90;;;;;;5363644;22;20483;-61
2023/07/22 01:37:38;;;;;;;10.83;9.70;;;11.90;70.30;;;;;;5057508;28;20870;-60
2023/07/22 01:40:11;;;;;;;13.83;10.57;;;11.80;99.90;;;;;;5057289;28;20552;-61
2023/07/22 01:42:39;;;;;;;12.33;9.90;;;11.90;1.00;;;;;;5057320;28;20561;-60
2023/07/22 01:45:08;;;;;;;12.37;11.10;;;11.90;1.00;;;;;;5057747;28;20889;-60
2023/07/22 01:47:35;;;;;;;12.57;10.43;;;11.90;99.90;;;;;;5056896;28;20469;-61
2023/07/22 01:50:03;;;;;;;10.67;9.57;;;11.90;1.00;;;;;;5056915;28;20569;-60
2023/07/22 01:52:30;;;;;;;12.33;11.13;;;11.80;99.90;;;;;;5057318;28;20490;-60
2023/07/22 01:54:58;;;;;;;11.57;10.40;;;11.80;99.90;;;;;;5057509;28;20558;-60
2023/07/22 01:57:26;;;;;;;13.60;10.80;;;11.70;43.00;;;;;;5057107;28;20497;-60
2023/07/22 01:59:53;;;;;;;11.80;9.33;;;11.70;99.90;;;;;;5056983;28;20929;-60
2023/07/22 02:02:21;;;;;;;14.80;10.27;;;11.70;99.90;;;;;;5056883;28;20441;-60
2023/07/22 02:04:48;;;;;;;13.17;11.70;;;11.80;99.90;;;;;;5057143;28;20557;-60
2023/07/22 02:07:16;;;;;;;13.50;10.60;;;11.80;99.90;;;;;;5057147;28;20459;-60
2023/07/22 02:09:44;;;;;;;14.20;11.17;;;11.80;1.00;;;;;;5056641;28;20476;-60
2023/07/22 02:12:11;;;;;;;12.07;10.77;;;11.80;99.90;;;;;;5056644;28;20963;-60
2023/07/22 02:14:40;;;;;;;12.60;11.27;;;11.90;1.00;;;;;;5057164;28;20942;-60
2023/07/22 02:17:09;;;;;;;12.27;10.80;;;11.90;99.90;;;;;;5057579;28;20436;-60
2023/07/22 02:19:36;;;;;;;11.93;10.57;;;11.90;99.90;;;;;;5061312;28;20766;-60
2023/07/22 02:22:04;;;;;;;13.53;10.90;;;11.90;99.90;;;;;;5060826;28;20498;-60
2023/07/22 02:24:32;;;;;;;12.53;10.37;;;11.90;99.90;;;;;;5061048;28;20516;-60
2023/07/22 02:26:59;;;;;;;11.53;10.13;;;11.90;1.00;;;;;;5061314;28;20560;-60
2023/07/22 02:29:27;;;;;;;13.03;11.63;;;12.00;99.90;;;;;;5060960;28;20437;-60
2023/07/22 02:31:55;;;;;;;14.47;10.53;;;12.00;56.50;;;;;;5060991;28;20551;-60
2023/07/22 02:34:22;;;;;;;12.63;11.07;;;12.00;99.90;;;;;;5060734;28;20489;-60
2023/07/22 02:36:50;;;;;;;12.70;10.47;;;11.90;99.90;;;;;;5061100;28;20944;-60
2023/07/22 02:39:17;;;;;;;14.73;10.90;;;12.00;99.90;;;;;;5060783;28;20864;-61
2023/07/22 02:41:44;;;;;;;12.53;10.80;;;12.00;99.90;;;;;;5060223;28;20504;-60
2023/07/22 02:44:12;;;;;;;14.10;11.23;;;12.10;1.00;;;;;;5060509;28;20516;-60
2023/07/22 02:46:39;;;;;;;10.90;9.83;;;12.00;99.90;;;;;;5060672;28;20473;-60
2023/07/22 02:49:09;;;;;;;13.83;11.23;;;12.10;1.00;;;;;;5060737;28;20545;-60
2023/07/22 02:54:04;;;;;;;14.87;11.37;;;12.10;99.90;;;;;;5058070;28;20459;-65
2023/07/22 02:56:32;;;;;;;14.43;12.30;;;12.00;5.10;;;;;;5059979;28;20462;-64
2023/07/22 02:58:59;;;;;;;12.10;10.90;;;12.00;1.00;;;;;;5060126;28;20464;-64
2023/07/22 03:01:26;;;;;;;11.73;10.47;;;12.00;1.00;;;;;;5060575;28;20458;-64
2023/07/22 03:03:54;;;;;;;15.03;11.60;;;12.00;1.00;;;;;;5060660;28;20486;-65
2023/07/22 03:06:26;;;;;;;13.10;10.53;;;12.10;99.90;;;;;;5060095;28;20554;-65
2023/07/22 03:08:54;;;;;;;14.17;12.67;;;12.10;1.00;;;;;;5060024;28;20508;-65
2023/07/22 03:11:24;;;;;;;14.43;12.93;;;12.10;99.90;;;;;;5059801;28;20461;-65
2023/07/22 03:13:52;;;;;;;14.27;12.77;;;12.20;1.00;;;;;;5060047;28;20469;-65
2023/07/22 03:16:19;;;;;;;15.50;11.47;;;12.20;1.00;;;;;;5059418;28;20458;-64
2023/07/22 03:18:46;;;;;;;15.03;11.70;;;12.20;1.00;;;;;;5060078;28;20462;-65
2023/07/22 03:21:13;;;;;;;13.70;12.20;;;12.20;1.00;;;;;;5059462;28;20497;-66
2023/07/22 03:23:42;;;;;;;13.67;11.17;;;12.20;1.00;;;;;;5059977;28;20468;-65
2023/07/22 03:26:09;;;;;;;13.10;11.23;;;12.30;99.90;;;;;;5059862;28;20462;-65
2023/07/22 03:28:36;;;;;;;13.10;11.67;;;12.30;99.90;;;;;;5059216;28;20516;-66
2023/07/22 03:31:04;;;;;;;16.50;11.80;;;12.30;1.00;;;;;;5058844;28;20494;-65
2023/07/22 03:33:31;;;;;;;13.90;12.40;;;12.30;1.00;;;;;;5059620;28;20497;-66
2023/07/22 03:35:58;;;;;;;15.03;11.60;;;12.30;99.90;;;;;;5059645;28;20805;-66
2023/07/22 03:38:25;;;;;;;13.27;11.87;;;12.40;99.90;;;;;;5059266;28;20466;-66
2023/07/22 03:40:54;;;;;;;15.13;12.10;;;12.30;99.90;;;;;;5059807;28;20454;-66
2023/07/22 03:43:21;;;;;;;12.73;10.90;;;12.40;1.00;;;;;;5059499;28;20454;-66
2023/07/22 03:45:48;;;;;;;13.17;11.37;;;12.40;8.60;;;;;;5059765;28;20866;-66
2023/07/22 03:48:15;;;;;;;12.40;10.33;;;12.40;1.00;;;;;;5059370;28;20458;-66
2023/07/22 03:50:43;;;;;;;12.43;10.57;;;12.50;1.00;;;;;;5059607;28;20469;-66
2023/07/22 03:53:10;;;;;;;12.97;11.10;;;12.60;99.90;;;;;;5058989;28;20526;-66
2023/07/22 03:55:37;;;;;;;11.83;10.60;;;12.60;1.00;;;;;;5059297;28;20516;-66
2023/07/22 03:58:06;;;;;;;13.70;10.13;;;12.60;99.90;;;;;;5044953;28;20463;-66
2023/07/22 04:00:33;;;;;;;14.97;10.60;;;12.60;1.00;;;;;;5038724;28;20467;-66
2023/07/22 04:03:00;;;;;;;12.10;10.90;;;12.60;1.00;;;;;;5038736;28;20554;-67
2023/07/22 04:05:27;;;;;;;12.13;10.83;;;12.70;1.00;;;;;;5039268;28;20745;-66
2023/07/22 04:07:54;;;;;;;15.67;10.60;;;12.70;99.90;;;;;;5038848;28;20494;-66
2023/07/22 04:10:22;;;;;;;12.50;10.37;;;12.80;99.90;;;;;;5038819;28;20463;-67
2023/07/22 04:12:49;;;;;;;12.67;10.63;;;12.80;8.80;;;;;;5038541;28;20517;-66
2023/07/22 04:15:18;;;;;;;13.00;10.47;;;12.80;99.90;;;;;;5039029;28;20482;-66
2023/07/22 04:17:46;;;;;;;11.37;9.70;;;12.80;1.00;;;;;;5039268;28;20442;-66
2023/07/22 04:20:14;;;;;;;12.60;11.30;;;12.80;99.90;;;;;;5048314;28;20450;-65
2023/07/22 04:22:42;;;;;;;12.43;11.17;;;12.80;99.90;;;;;;5058244;28;20516;-66
2023/07/22 04:25:10;;;;;;;14.53;10.10;;;12.80;99.90;;;;;;5058879;28;20438;-66
2023/07/22 04:27:37;;;;;;;11.83;10.00;;;12.80;1.00;;;;;;5058900;28;20569;-66
2023/07/22 04:30:04;;;;;;;10.90;9.80;;;12.80;1.00;;;;;;5059467;28;20833;-66
2023/07/22 04:32:33;;;;;;;11.43;9.90;;;12.90;99.90;;;;;;5058351;28;20514;-66
2023/07/22 04:35:00;;;;;;;11.57;10.37;;;12.90;1.00;;;;;;5058503;28;20513;-66
2023/07/22 04:37:27;;;;;;;10.17;9.17;;;13.00;1.00;;;;;;5058524;28;20480;-66
2023/07/22 04:39:55;;;;;;;11.90;9.60;;;12.90;99.90;;;;;;5450150;22;20598;-62
2023/07/22 04:42:22;;;;;;;10.60;9.37;;;13.00;99.90;;;;;;5017815;28;20491;-62
2023/07/22 04:44:49;;;;;;;11.17;9.97;;;13.10;65.60;;;;;;5018717;28;20502;-61
2023/07/22 04:47:17;;;;;;;13.70;10.50;;;13.10;70.10;;;;;;5018694;28;20480;-62
2023/07/22 04:49:45;;;;;;;12.80;9.20;;;13.10;1.00;;;;;;5018973;28;20464;-62
2023/07/22 04:52:12;;;;;;;10.40;8.60;;;13.10;1.00;;;;;;5018983;28;20782;-63
2023/07/22 04:54:40;;;;;;;11.10;9.60;;;13.10;1.00;;;;;;5018298;28;20500;-63
2023/07/22 04:57:07;;;;;;;10.73;9.10;;;13.20;1.00;;;;;;5018137;28;20468;-62
2023/07/22 04:59:35;;;;;;;11.53;9.27;;;13.20;1.00;;;;;;5018715;28;20466;-63
2023/07/22 05:02:09;;;;;;;10.63;9.13;;;13.20;99.90;;;;;;5135775;27;20342;-64
2023/07/22 05:04:37;;;;;;;11.10;9.50;;;13.30;99.90;;;;;;5115562;28;20842;-64
2023/07/22 05:07:05;;;;;;;11.93;10.70;;;13.40;99.90;;;;;;5114579;28;20513;-64
2023/07/22 05:09:35;;;;;;;9.93;8.93;;;13.50;99.90;;;;;;5114993;28;20506;-63
2023/07/22 05:12:02;;;;;;;12.30;10.57;;;13.60;99.90;;;;;;5114809;28;20455;-63
2023/07/22 05:14:29;;;;;;;10.80;9.70;;;13.60;99.90;;;;;;5115025;28;20503;-64
2023/07/22 05:16:57;;;;;;;10.87;9.10;;;13.80;99.90;;;;;;5114976;28;20880;-65
2023/07/22 05:19:25;;;;;;;11.30;9.30;;;13.70;99.90;;;;;;5114834;28;20460;-65
2023/07/22 05:21:52;;;;;;;13.10;9.57;;;13.90;99.90;;;;;;5114327;28;20545;-65
2023/07/22 05:24:20;;;;;;;9.40;8.23;;;13.90;99.90;;;;;;5114690;28;20528;-66
2023/07/22 05:26:48;;;;;;;10.90;9.70;;;14.00;99.90;;;;;;5114953;28;20439;-66
2023/07/22 05:29:15;;;;;;;10.90;9.43;;;14.10;92.10;;;;;;5114661;28;20866;-66
2023/07/22 05:31:44;;;;;;;11.37;9.00;;;14.20;35.40;;;;;;5114795;28;20459;-66
2023/07/22 05:34:11;;;;;;;12.37;9.40;;;14.30;53.10;;;;;;5114590;28;20801;-66
2023/07/22 05:36:40;;;;;;;11.50;9.70;;;14.30;1.00;;;;;;5114809;28;20567;-65
2023/07/22 05:39:07;;;;;;;10.97;9.83;;;14.40;24.00;;;;;;5114213;28;20460;-65
2023/07/22 05:41:35;;;;;;;11.30;8.73;;;14.40;1.00;;;;;;5114271;28;20981;-65
2023/07/22 05:44:02;;;;;;;11.40;9.70;;;14.60;1.00;;;;;;5114201;28;20470;-65
2023/07/22 05:46:29;;;;;;;11.63;8.80;;;14.60;1.00;;;;;;5114680;28;20459;-65
2023/07/22 05:48:56;;;;;;;10.80;9.67;;;14.70;1.00;;;;;;5114361;28;20554;-65
2023/07/22 05:51:23;;;;;;;12.00;9.20;;;14.70;1.00;;;;;;5114059;28;20506;-64
2023/07/22 05:53:52;;;;;;;10.17;9.07;;;14.80;1.00;;;;;;5114210;28;20554;-65
2023/07/22 05:56:19;;;;;;;12.40;9.60;;;14.90;1.00;;;;;;5104638;28;20756;-64
2023/07/22 05:58:46;;;;;;;11.70;9.83;;;15.00;1.00;;;;;;5093735;28;20944;-64
2023/07/22 06:01:14;;;;;;;10.07;9.03;;;15.00;1.00;;;;;;5093072;28;20496;-64
2023/07/22 06:03:42;;;;;;;11.30;9.97;;;15.20;1.00;;;;;;5093271;28;20465;-63
2023/07/22 06:06:09;;;;;;;10.17;9.27;;;15.50;1.00;;;;;;5093556;28;20896;-64
2023/07/22 06:08:36;;;;;;;11.23;9.73;;;15.50;99.90;;;;;;5093885;28;20460;-64
2023/07/22 06:11:05;;;;;;;11.93;9.90;;;15.70;99.90;;;;;;5093239;28;20457;-64
2023/07/22 06:13:32;;;;;;;10.60;9.50;;;15.70;99.90;;;;;;5079486;28;20519;-63
2023/07/22 06:15:59;;;;;;;10.37;9.37;;;15.80;99.90;;;;;;5080234;28;20465;-63
2023/07/22 06:18:27;;;;;;;11.47;9.37;;;15.90;99.90;;;;;;5080124;28;20498;-63
2023/07/22 06:20:54;;;;;;;10.40;9.30;;;16.00;99.90;;;;;;5079873;28;20749;-62
2023/07/22 06:23:21;;;;;;;10.50;9.40;;;16.10;99.90;;;;;;5079641;28;20472;-62
2023/07/22 06:25:51;;;;;;;10.33;9.10;;;16.30;99.90;;;;;;5079666;28;20511;-62
2023/07/22 06:28:20;;;;;;;9.27;8.37;;;16.40;99.90;;;;;;5079671;28;20468;-61
2023/07/22 06:30:47;;;;;;;13.10;10.13;;;16.70;99.90;;;;;;5079969;28;20524;-61
2023/07/22 06:33:16;;;;;;;9.90;8.90;;;16.90;99.90;;;;;;5079481;28;20465;-62
2023/07/22 06:35:43;;;;;;;12.03;9.77;;;17.00;99.90;;;;;;5079312;28;20967;-61
2023/07/22 06:38:10;;;;;;;9.63;8.60;;;17.20;99.90;;;;;;5079723;28;20466;-61
2023/07/22 06:40:37;;;;;;;9.83;8.83;;;17.40;99.90;;;;;;5079510;28;20489;-61
2023/07/22 06:43:05;;;;;;;10.47;8.37;;;17.60;99.90;;;;;;5079658;28;20540;-60
2023/07/22 06:45:34;;;;;;;8.90;7.90;;;17.80;99.90;;;;;;5079055;28;20470;-60
2023/07/22 06:48:01;;;;;;;10.00;9.00;;;18.10;99.90;;;;;;5079199;28;20493;-60
2023/07/22 06:50:29;;;;;;;10.43;8.50;;;18.50;99.90;;;;;;5079459;28;20535;-62
2023/07/22 06:52:56;;;;;;;9.80;8.57;;;18.80;99.90;;;;;;5087279;28;20553;-60
2023/07/22 06:55:24;;;;;;;8.07;7.30;;;18.90;99.90;;;;;;5078937;28;20843;-60
2023/07/22 06:57:51;;;;;;;9.20;8.30;;;19.00;99.90;;;;;;5079057;28;20480;-60
2023/07/22 07:00:19;;;;;;;9.50;8.33;;;19.00;99.90;;;;;;5078513;28;20495;-60
2023/07/22 07:02:47;;;;;;;9.50;8.50;;;19.00;99.90;;;;;;5079085;28;20472;-61
2023/07/22 07:05:16;;;;;;;8.63;7.83;;;19.00;99.90;;;;;;5079027;28;20497;-60
2023/07/22 07:07:43;;;;;;;9.90;7.70;;;19.20;99.90;;;;;;5079130;28;20461;-59
2023/07/22 07:10:11;;;;;;;8.80;7.70;;;19.30;99.90;;;;;;5078735;28;20500;-60
2023/07/22 07:12:38;;;;;;;8.90;8.00;;;19.40;99.90;;;;;;5079102;28;20515;-60
2023/07/22 07:15:06;;;;;;;8.60;7.70;;;19.30;99.90;;;;;;5081059;28;20453;-60
2023/07/22 07:17:34;;;;;;;8.30;7.50;;;19.20;99.90;;;;;;5087019;28;20457;-60
2023/07/22 07:20:02;;;;;;;8.63;7.70;;;19.30;99.90;;;;;;5098533;28;20460;-60
2023/07/22 07:22:30;;;;;;;8.50;7.60;;;19.40;99.90;;;;;;5098629;28;20541;-60
2023/07/22 07:24:57;;;;;;;8.40;7.60;;;19.60;99.90;;;;;;5097428;28;20940;-60
2023/07/22 07:27:24;;;;;;;8.23;7.50;;;19.80;99.90;;;;;;5097233;28;20467;-60
2023/07/22 07:29:51;;;;;;;10.60;7.97;;;19.90;99.90;;;;;;5098692;28;20495;-59
2023/07/22 07:32:18;;;;;;;8.60;7.37;;;20.00;99.90;;;;;;5098763;28;20456;-59
2023/07/22 07:34:46;;;;;;;8.70;7.30;;;20.20;99.90;;;;;;5098746;28;20496;-61
2023/07/22 07:37:14;;;;;;;9.63;6.70;;;20.10;99.90;;;;;;5098450;28;20970;-60
2023/07/22 07:39:42;;;;;;;8.10;7.40;;;19.90;99.90;;;;;;5097884;28;20457;-60
2023/07/22 07:42:11;;;;;;;8.47;7.67;;;19.90;99.90;;;;;;5097114;28;20934;-59
2023/07/22 07:44:39;;;;;;;8.80;7.90;;;20.00;99.90;;;;;;5095967;28;20944;-59
2023/07/22 07:47:06;;;;;;;7.83;6.87;;;20.00;99.90;;;;;;5082321;28;20493;-59
2023/07/22 07:49:34;;;;;;;7.40;6.67;;;20.20;99.90;;;;;;5076195;28;20548;-59
2023/07/22 07:52:02;;;;;;;7.93;6.40;;;20.30;1.00;;;;;;5076474;28;20461;-59
2023/07/22 07:54:30;;;;;;;8.20;7.40;;;20.50;99.90;;;;;;5076074;28;20465;-59
2023/07/22 07:56:57;;;;;;;9.23;7.20;;;20.70;99.90;;;;;;5076530;28;20492;-60
2023/07/22 07:59:25;;;;;;;8.83;7.40;;;20.90;1.00;;;;;;5076163;28;20561;-59
2023/07/22 08:01:52;;;;;;;8.07;7.37;;;21.00;1.00;;;;;;5077148;28;20808;-60
2023/07/22 08:04:19;;;;;;;7.60;6.90;;;20.90;1.00;;;;;;5078037;28;20509;-59
2023/07/22 08:06:47;;;;;;;8.37;7.60;;;20.60;1.00;;;;;;5078189;28;20808;-60
2023/07/22 08:09:18;;;;;;;8.23;7.37;;;20.30;1.00;;;;;;5077796;28;20921;-59
2023/07/22 08:11:48;;;;;;;12.20;9.00;;;20.40;1.00;;;;;;5077767;28;20468;-59
2023/07/22 08:14:16;;;;;;;10.33;8.93;;;20.50;1.00;;;;;;5077675;28;20783;-60
2023/07/22 08:16:44;;;;;;;8.97;8.07;;;20.40;1.00;;;;;;5077980;28;20882;-59
2023/07/22 08:19:11;;;;;;;10.27;9.27;;;20.70;1.00;;;;;;5077626;28;20552;-60
2023/07/22 08:21:38;;;;;;;11.10;10.00;;;20.80;1.00;;;;;;5077367;28;20584;-61
2023/07/22 08:24:07;;;;;;;11.20;9.70;;;20.60;99.90;;;;;;5081265;28;20464;-59
2023/07/22 08:26:34;;;;;;;10.80;9.70;;;20.40;90.70;;;;;;5097834;28;20737;-59
2023/07/22 08:29:03;;;;;;;9.60;8.60;;;20.60;1.00;;;;;;5098006;28;20460;-59
2023/07/22 08:31:30;;;;;;;9.03;8.20;;;20.70;99.90;;;;;;5096648;28;20496;-58
2023/07/22 08:33:59;;;;;;;8.87;8.10;;;21.10;99.90;;;;;;5086571;28;20477;-59
2023/07/22 08:36:26;;;;;;;9.27;8.47;;;21.50;99.90;;;;;;5078337;28;20749;-59
2023/07/22 08:38:53;;;;;;;10.67;9.67;;;21.80;99.90;;;;;;5075810;28;20618;-59
2023/07/22 08:41:22;;;;;;;9.83;9.03;;;22.20;99.90;;;;;;5085436;28;20489;-59
2023/07/22 08:43:52;;;;;;;11.17;10.07;;;22.30;99.90;;;;;;5082454;28;20470;-59
2023/07/22 08:46:23;;;;;;;9.40;8.40;;;22.30;99.90;;;;;;5077437;28;20534;-59
2023/07/22 08:48:55;;;;;;;9.10;8.20;;;22.40;99.90;;;;;;5073662;28;20557;-60
2023/07/22 08:51:24;;;;;;;9.77;8.90;;;22.60;99.90;;;;;;5073796;28;20855;-60
2023/07/22 08:53:52;;;;;;;13.50;9.00;;;22.60;99.90;;;;;;5073798;28;20556;-59
2023/07/22 08:56:20;;;;;;;9.90;8.63;;;22.50;99.90;;;;;;5073301;28;20900;-61
2023/07/22 08:58:49;;;;;;;11.07;9.00;;;22.50;99.90;;;;;;5074140;28;20544;-60
2023/07/22 09:01:16;;;;;;;8.97;8.03;;;22.50;99.90;;;;;;5073048;28;20506;-60
2023/07/22 09:03:45;;;;;;;9.77;8.80;;;22.80;99.90;;;;;;5073952;28;20500;-59
2023/07/22 09:06:14;;;;;;;9.47;8.43;;;22.70;1.00;;;;;;5072749;28;20540;-60
2023/07/22 09:08:43;;;;;;;11.27;9.03;;;22.80;99.90;;;;;;5074015;28;20465;-59
2023/07/22 09:11:11;;;;;;;9.73;8.80;;;22.90;99.90;;;;;;5074395;28;20461;-60
2023/07/22 09:13:40;;;;;;;8.83;7.93;;;22.70;1.00;;;;;;5074607;28;20743;-59
2023/07/22 09:16:08;;;;;;;9.53;8.63;;;22.80;99.90;;;;;;5074881;28;20465;-61
2023/07/22 09:18:37;;;;;;;10.23;9.30;;;22.90;1.00;;;;;;5075171;28;20548;-59
2023/07/22 09:21:06;;;;;;;10.53;8.73;;;22.50;1.00;;;;;;5075888;28;20515;-59
2023/07/22 09:23:34;;;;;;;9.87;8.97;;;22.70;99.90;;;;;;5076894;28;20462;-59
2023/07/22 09:26:10;;;;;;;10.70;9.70;;;22.80;1.00;;;;;;5077103;28;20817;-61
2023/07/22 09:28:50;;;;;;;9.27;8.33;;;23.00;1.00;;;;;;5076881;28;20504;-61
2023/07/22 09:31:17;;;;;;;8.30;7.50;;;22.90;1.00;;;;;;5076528;28;20885;-60
2023/07/22 09:33:45;;;;;;;9.17;7.00;;;23.00;1.00;;;;;;5076959;28;20770;-60
2023/07/22 09:36:14;;;;;;;7.93;6.57;;;23.40;1.00;;;;;;5076678;28;20557;-59
2023/07/22 09:38:41;;;;;;;8.30;7.50;;;23.20;1.00;;;;;;5076808;28;20465;-59
2023/07/22 09:41:09;;;;;;;8.70;7.90;;;23.40;1.00;;;;;;5076661;28;20465;-60
2023/07/22 09:43:40;;;;;;;9.57;8.70;;;23.30;99.90;;;;;;5076647;28;20465;-60
2023/07/22 09:46:09;;;;;;;9.27;8.37;;;23.20;1.00;;;;;;5076659;28;20504;-61
2023/07/22 09:48:43;;;;;;;8.73;7.93;;;23.00;5.30;;;;;;5079828;28;20757;-58
2023/07/22 09:51:16;;;;;;;11.23;8.40;;;23.10;1.00;;;;;;5080460;28;20961;-58
2023/07/22 09:53:47;;;;;;;8.10;7.30;;;23.20;1.00;;;;;;5082799;28;20503;-59
2023/07/22 09:56:15;;;;;;;7.63;7.03;;;23.70;1.00;;;;;;5079970;28;20484;-60
2023/07/22 09:58:46;;;;;;;7.10;6.50;;;23.90;1.00;;;;;;5080568;28;20461;-61
2023/07/22 10:01:20;;;;;;;7.67;6.80;;;23.70;1.00;;;;;;5079800;28;20550;-62
2023/07/22 10:03:48;;;;;;;8.90;7.17;;;23.50;1.00;;;;;;5096099;28;20467;-61
2023/07/22 10:06:18;;;;;;;5.87;5.37;;;23.00;1.00;;;;;;5100674;28;20500;-60
2023/07/22 10:08:47;;;;;;;6.70;6.00;;;22.70;1.00;;;;;;5100448;28;20924;-59
2023/07/22 10:11:16;;;;;;;7.23;6.63;;;22.20;1.00;;;;;;5100064;28;20464;-60
2023/07/22 10:13:44;;;;;;;8.20;6.73;;;22.00;1.00;;;;;;5099914;28;20460;-59
2023/07/22 10:16:12;;;;;;;7.30;6.60;;;22.00;1.00;;;;;;5096251;28;20569;-60
2023/07/22 10:18:43;;;;;;;8.43;7.63;;;21.60;1.00;;;;;;5079868;28;20473;-59
2023/07/22 10:21:10;;;;;;;7.73;7.00;;;21.60;99.90;;;;;;5079372;28;20461;-59
2023/07/22 10:23:40;;;;;;;7.60;6.90;;;21.50;99.90;;;;;;5079721;28;20489;-59
2023/07/22 10:26:10;;;;;;;6.43;5.83;;;21.70;99.90;;;;;;5079468;28;20457;-65
2023/07/22 10:28:40;;;;;;;7.23;6.63;;;22.00;1.00;;;;;;5080036;28;20484;-60
2023/07/22 10:31:08;;;;;;;7.90;7.10;;;21.90;1.00;;;;;;5079418;28;20466;-61
2023/07/22 10:33:36;;;;;;;8.10;6.70;;;22.00;1.00;;;;;;5077714;28;20465;-59
2023/07/22 10:36:06;;;;;;;6.70;6.10;;;22.30;1.00;;;;;;5078161;28;20813;-59
2023/07/22 10:38:38;;;;;;;7.43;6.77;;;22.10;1.00;;;;;;5079398;28;20465;-64
2023/07/22 10:41:16;;;;;;;6.60;6.00;;;22.70;1.00;;;;;;5085465;28;20524;-66
2023/07/22 10:43:54;;;;;;;6.33;5.73;;;23.60;1.00;;;;;;5078721;28;20519;-63
2023/07/22 10:46:33;;;;;;;8.47;6.73;;;24.20;1.00;;;;;;5083743;28;20952;-65
2023/07/22 10:49:11;;;;;;;6.67;6.07;;;24.80;16.00;;;;;;5087433;28;20872;-67
2023/07/22 10:51:38;;;;;;;8.60;5.70;;;24.90;1.00;;;;;;5088530;28;20470;-66
2023/07/22 10:54:12;;;;;;;6.17;5.57;;;24.90;1.00;;;;;;5087437;28;20467;-65
2023/07/22 10:56:44;;;;;;;11.33;6.57;;;25.00;1.00;;;;;;5077549;28;20467;-63
2023/07/22 10:59:12;;;;;;;6.30;5.47;;;25.40;1.00;;;;;;5077237;28;20457;-66
2023/07/22 11:01:40;;;;;;;5.80;5.30;;;25.80;1.00;;;;;;5077890;28;20495;-67
2023/07/22 11:04:30;;;;;;;5.27;4.83;;;25.60;1.00;;;;;;5087993;28;20506;-64
2023/07/22 11:06:59;;;;;;;5.57;5.07;;;24.60;1.00;;;;;;5083848;28;20740;-63
2023/07/22 11:09:45;;;;;;;5.93;5.43;;;24.40;1.00;;;;;;5079050;28;20457;-66
2023/07/22 11:12:20;;;;;;;6.23;5.63;;;24.50;58.90;;;;;;5096351;28;20456;-66
2023/07/22 11:14:49;;;;;;;6.37;5.70;;;24.80;1.00;;;;;;5115667;28;20459;-65
2023/07/22 11:17:18;;;;;;;6.10;5.60;;;24.60;47.80;;;;;;5101683;28;20952;-64
2023/07/22 11:19:46;;;;;;;5.70;5.20;;;24.40;1.00;;;;;;5098817;28;20539;-63
2023/07/22 11:22:14;;;;;;;5.30;4.60;;;24.00;1.00;;;;;;5092746;28;20492;-67
2023/07/22 11:24:42;;;;;;;4.83;4.43;;;24.40;1.00;;;;;;5083953;28;20862;-63
2023/07/22 11:27:11;;;;;;;6.27;5.13;;;24.10;1.00;;;;;;5078262;28;20462;-65
2023/07/22 11:29:40;;;;;;;6.33;5.53;;;24.30;1.00;;;;;;5079552;28;20531;-64
2023/07/22 11:32:15;;;;;;;6.83;6.27;;;24.10;1.00;;;;;;5078558;28;20459;-64
2023/07/22 11:34:44;;;;;;;6.53;5.60;;;24.40;1.00;;;;;;5077613;28;20460;-62
2023/07/22 11:37:12;;;;;;;6.83;4.90;;;24.20;99.90;;;;;;5077718;28;20518;-65
2023/07/22 11:39:41;;;;;;;5.23;4.80;;;24.60;1.00;;;;;;5077888;28;20464;-64
2023/07/22 11:42:09;;;;;;;7.77;4.87;;;24.70;1.00;;;;;;5077089;28;20489;-63
2023/07/22 11:44:37;;;;;;;5.37;4.87;;;24.60;24.10;;;;;;5078454;28;20469;-62
2023/07/22 11:47:08;;;;;;;5.30;4.47;;;24.40;1.00;;;;;;5076746;28;20882;-62
2023/07/22 11:49:37;;;;;;;4.97;4.57;;;24.00;16.20;;;;;;5075648;28;20457;-65
2023/07/22 11:52:07;;;;;;;4.40;4.00;;;23.60;42.80;;;;;;5081742;28;20457;-63
2023/07/22 11:54:35;;;;;;;4.20;3.80;;;23.90;1.00;;;;;;5077737;28;20872;-65
2023/07/22 11:57:13;;;;;;;4.20;3.90;;;24.80;99.90;;;;;;5079671;28;20900;-64
2023/07/22 11:59:44;;;;;;;4.87;4.47;;;25.60;53.50;;;;;;5080946;28;20492;-64
2023/07/22 12:02:16;;;;;;;5.03;4.30;;;25.90;99.90;;;;;;5087044;28;20566;-64
2023/07/22 12:04:44;;;;;;;5.07;4.50;;;25.80;99.90;;;;;;5078009;28;20784;-63
2023/07/22 12:07:24;;;;;;;5.30;4.80;;;26.00;99.90;;;;;;5076102;28;20519;-65
2023/07/22 12:09:53;;;;;;;4.07;3.67;;;26.40;99.90;;;;;;5079537;28;20456;-62
2023/07/22 12:12:20;;;;;;;4.60;4.20;;;26.50;99.90;;;;;;5081013;28;20464;-64
2023/07/22 12:14:48;;;;;;;6.50;4.40;;;27.20;99.90;;;;;;5080111;28;20524;-63
2023/07/22 12:17:17;;;;;;;4.97;4.53;;;27.40;1.00;;;;;;5081199;28;20489;-64
2023/07/22 12:19:53;;;;;;;4.77;4.37;;;27.60;99.90;;;;;;5088050;28;22010;-64
2023/07/22 12:22:20;;;;;;;4.60;4.20;;;27.70;99.90;;;;;;5091487;28;20928;-64
2023/07/22 12:24:49;;;;;;;4.90;4.40;;;26.90;99.90;;;;;;5079665;28;20470;-62
2023/07/22 12:27:16;;;;;;;4.90;4.50;;;26.90;99.90;;;;;;5090827;28;20466;-61
2023/07/22 12:29:44;;;;;;;4.00;3.70;;;26.60;99.90;;;;;;5092570;28;20885;-62
2023/07/22 12:32:11;;;;;;;4.97;4.50;;;26.70;99.90;;;;;;5091159;28;20555;-62
2023/07/22 12:34:40;;;;;;;4.37;3.97;;;26.60;99.90;;;;;;5080852;28;21066;-63
2023/07/22 12:37:07;;;;;;;5.60;5.20;;;26.10;99.90;;;;;;5076314;28;20461;-63
2023/07/22 12:39:35;;;;;;;4.70;4.30;;;25.90;44.80;;;;;;5077417;28;20560;-64
2023/07/22 12:42:03;;;;;;;6.13;5.17;;;25.90;99.90;;;;;;5077486;28;20461;-63
2023/07/22 12:44:30;;;;;;;4.70;4.30;;;26.00;99.90;;;;;;5078062;28;20461;-62
2023/07/22 12:46:58;;;;;;;6.87;4.40;;;26.40;99.90;;;;;;5077800;28;20469;-64
2023/07/22 12:49:26;;;;;;;4.87;4.47;;;26.20;99.90;;;;;;5077166;28;20500;-64
2023/07/22 12:51:55;;;;;;;4.40;4.00;;;26.50;99.90;;;;;;5077088;28;20563;-63
2023/07/22 12:54:22;;;;;;;4.30;3.97;;;26.90;99.90;;;;;;5077100;28;20559;-62